Glasgow, United Kingdom
Current Conditions -  °F | °C
As of 8:50 PM on Friday 19 Dec 2014 (Local Time) from EGPF Reporting Station
Light Rain Light Rain  
Wind Chill:   Ceiling: Unl
Heat Index:   Visibility: 6mi
Dew Point:   Wind: 15mph
Humidity: 71%   Direction: 260°W
Pressure: 29.8"   Gusts: NA
Location:  55.87°N, 4.26°W
Report Text: EGPF 192050Z AUTO 26013KT 9999 -RA FEW023/// SCT041/// //////TCU 07/02 Q1009
Loading
Personal Weather Stations






























Interactive Weather Map New forecast layout! Learn more

10-Day Weather Forecast

Advertisements
Track Severe Weather on mobile